Time;durP1;ratioP1;P1;durP2;ratioP2;P2;SDS_P1;SDS_P2;PMS_P1;PMS_P2;Temp;Humidity;BMP_temperature;BMP_pressure;BME280_temperature;BME280_humidity;BME280_pressure;Samples;Min_cycle;Max_cycle;Signal;HPM_P1;HPM_P2
2023/04/06 00:01:18;;;;;;;23.50;11.30;;;;;;;-1.14;64.01;99414.73;271936;1266;22959;-87
2023/04/06 00:07:19;;;;;;;18.70;10.40;;;;;;;-1.24;64.44;99418.23;274188;1266;22315;-87
2023/04/06 00:13:20;;;;;;;35.40;16.00;;;;;;;-1.32;64.95;99420.70;273593;1267;23393;-88
2023/04/06 00:19:43;;;;;;;53.90;20.00;;;;;;;-1.42;65.47;99423.45;274043;1259;22188;-87
2023/04/06 00:26:13;;;;;;;35.10;15.60;;;;;;;-1.47;65.85;99420.02;274000;1267;22360;-87
2023/04/06 00:33:10;;;;;;;35.10;14.30;;;;;;;-1.54;66.24;99416.07;274243;1266;22204;-87
2023/04/06 00:39:11;;;;;;;28.60;14.00;;;;;;;-1.63;66.48;99414.89;273998;1266;26194;-86
2023/04/06 00:45:22;;;;;;;29.00;12.80;;;;;;;-1.69;66.81;99413.17;272897;1266;22668;-87
2023/04/06 00:51:23;;;;;;;23.30;10.80;;;;;;;-1.79;67.27;99409.63;271904;1266;23930;-87
2023/04/06 00:57:24;;;;;;;20.10;11.10;;;;;;;-1.87;67.65;99408.27;273392;1263;22543;-86
2023/04/06 01:03:30;;;;;;;15.50;8.00;;;;;;;-1.94;68.13;99408.34;273992;1266;23534;-86
2023/04/06 01:09:32;;;;;;;19.50;10.40;;;;;;;-1.96;68.72;99406.16;270548;1256;22546;-85
2023/04/06 01:15:38;;;;;;;22.00;11.10;;;;;;;-2.01;69.18;99401.86;271284;1266;22316;-84
2023/04/06 01:21:42;;;;;;;27.50;12.90;;;;;;;-2.14;69.25;99402.90;273116;1259;22579;-84
2023/04/06 01:28:11;;;;;;;24.00;11.40;;;;;;;-2.25;69.73;99400.63;272849;1266;25233;-83
2023/04/06 01:34:31;;;;;;;20.40;11.20;;;;;;;-2.31;70.16;99397.04;271016;1266;22532;-83
2023/04/06 01:40:35;;;;;;;24.50;13.00;;;;;;;-2.41;70.75;99392.46;274027;1266;22531;-83
2023/04/06 01:46:37;;;;;;;27.30;13.60;;;;;;;-2.53;70.81;99388.12;271271;1267;22527;-84
2023/04/06 01:52:40;;;;;;;23.30;12.40;;;;;;;-2.62;71.02;99388.60;270935;1267;22672;-83
2023/04/06 01:58:42;;;;;;;20.10;10.50;;;;;;;-2.65;71.73;99385.52;271961;1267;22574;-85
2023/04/06 02:04:45;;;;;;;25.10;12.30;;;;;;;-2.75;72.03;99380.98;271089;1266;22348;-82
2023/04/06 02:10:48;;;;;;;22.40;11.80;;;;;;;-2.88;71.92;99378.45;273260;1267;22326;-86
2023/04/06 02:17:01;;;;;;;26.90;13.10;;;;;;;-3.00;72.15;99377.94;273295;1266;22442;-83
2023/04/06 02:23:03;;;;;;;24.50;13.10;;;;;;;-3.07;72.56;99377.50;273720;1266;22315;-84
2023/04/06 02:29:10;;;;;;;28.70;14.50;;;;;;;-3.11;72.88;99377.52;272888;1267;22757;-84
2023/04/06 02:35:13;;;;;;;25.40;12.30;;;;;;;-3.20;73.02;99378.12;270815;1260;22530;-83
2023/04/06 02:41:15;;;;;;;29.40;13.40;;;;;;;-3.28;73.29;99378.09;269924;1267;25209;-83
2023/04/06 02:47:17;;;;;;;26.50;13.80;;;;;;;-3.33;73.76;99375.71;271214;1266;23915;-82
2023/04/06 02:53:21;;;;;;;25.40;13.80;;;;;;;-3.40;73.94;99376.97;274056;1266;23151;-82
2023/04/06 02:59:23;;;;;;;28.50;14.60;;;;;;;-3.44;74.09;99384.98;274051;1267;23676;-83
2023/04/06 03:05:33;;;;;;;27.40;14.60;;;;;;;-3.48;74.17;99388.78;274118;1267;23429;-81
2023/04/06 03:11:35;;;;;;;28.40;14.40;;;;;;;-3.51;74.39;99391.58;273526;1267;23460;-82
2023/04/06 03:17:38;;;;;;;30.90;16.60;;;;;;;-3.49;74.72;99391.14;270830;1266;22562;-82
2023/04/06 03:23:42;;;;;;;30.70;15.60;;;;;;;-3.47;74.92;99392.58;272355;1260;22376;-81
2023/04/06 03:29:43;;;;;;;25.80;14.90;;;;;;;-3.48;75.16;99392.86;274170;1266;22378;-81
2023/04/06 03:35:47;;;;;;;31.60;14.70;;;;;;;-3.54;75.16;99397.49;272387;1257;22891;-81
2023/04/06 03:41:48;;;;;;;31.60;15.90;;;;;;;-3.61;75.45;99396.86;271985;1267;23035;-81
2023/04/06 03:48:07;;;;;;;34.20;14.00;;;;;;;-3.60;76.15;99394.94;272971;1259;23337;-81
2023/04/06 03:54:10;;;;;;;32.50;17.80;;;;;;;-3.62;76.46;99397.61;271502;1266;22563;-81
2023/04/06 04:00:12;;;;;;;37.90;17.70;;;;;;;-3.71;76.35;99397.80;272222;1266;22586;-81
2023/04/06 04:06:16;;;;;;;35.30;15.70;;;;;;;-3.73;76.87;99399.80;272806;1267;25571;-81
2023/04/06 04:12:18;;;;;;;35.20;17.00;;;;;;;-3.69;77.31;99392.79;271138;1267;22499;-81
2023/04/06 04:18:19;;;;;;;35.80;16.80;;;;;;;-3.66;77.46;99397.75;271639;1266;24202;-82
2023/04/06 04:24:20;;;;;;;28.80;16.10;;;;;;;-3.67;77.61;99396.67;272297;1257;22428;-82
2023/04/06 04:30:30;;;;;;;25.40;14.40;;;;;;;-3.72;77.94;99399.09;273432;1266;23368;-84
2023/04/06 04:36:31;;;;;;;26.50;14.30;;;;;;;-3.65;78.21;99397.30;271276;1266;23516;-82
2023/04/06 04:42:34;;;;;;;30.60;14.90;;;;;;;-3.59;78.21;99393.34;271925;1259;22352;-83
2023/04/06 04:48:36;;;;;;;34.90;16.30;;;;;;;-3.46;79.13;99392.64;273605;1267;22379;-83
2023/04/06 04:54:40;;;;;;;35.60;15.80;;;;;;;-3.35;79.27;99393.39;273976;1267;22435;-83
2023/04/06 05:00:54;;;;;;;32.20;16.10;;;;;;;-3.22;79.43;99396.11;272827;1259;22900;-84
2023/04/06 05:07:22;;;;;;;33.80;16.10;;;;;;;-2.99;80.45;99397.54;273783;1267;22506;-83
2023/04/06 05:13:24;;;;;;;40.60;19.20;;;;;;;-2.64;81.38;99387.06;274131;1266;23123;-83
2023/04/06 05:19:26;;;;;;;51.30;25.10;;;;;;;-2.26;81.70;99386.75;272133;1267;22640;-83
2023/04/06 05:25:28;;;;;;;62.40;29.20;;;;;;;-1.90;81.58;99383.94;270921;1267;22573;-83
2023/04/06 05:31:31;;;;;;;51.90;27.60;;;;;;;-1.58;81.35;99379.88;273800;1267;22349;-83
2023/04/06 05:37:36;;;;;;;43.70;25.80;;;;;;;-1.31;80.85;99377.48;273642;1260;23608;-83
2023/04/06 05:43:37;;;;;;;54.80;26.60;;;;;;;-1.00;80.67;99373.74;273502;1267;22421;-84
2023/04/06 05:49:38;;;;;;;65.40;26.80;;;;;;;-0.79;80.01;99372.52;273906;1267;22317;-83
2023/04/06 05:55:43;;;;;;;50.60;26.20;;;;;;;-0.60;79.71;99372.87;274070;1266;22383;-83
2023/04/06 06:01:48;;;;;;;44.50;21.00;;;;;;;-0.40;79.07;99374.54;271980;1259;22721;-82
2023/04/06 06:07:51;;;;;;;37.30;19.00;;;;;;;-0.27;77.68;99373.36;273793;1267;22410;-82
2023/04/06 06:13:53;;;;;;;42.30;19.60;;;;;;;-0.17;77.03;99376.30;273972;1266;23444;-81
2023/04/06 06:19:54;;;;;;;34.40;18.60;;;;;;;-0.11;76.75;99379.80;274087;1253;22423;-83
2023/04/06 06:25:58;;;;;;;39.20;19.90;;;;;;;-0.05;76.21;99383.40;273928;1259;22354;-83
2023/04/06 06:32:00;;;;;;;33.70;18.50;;;;;;;0.07;75.91;99381.47;273892;1267;22216;-83
2023/04/06 06:38:02;;;;;;;33.90;17.10;;;;;;;0.27;75.89;99376.90;274172;1266;22398;-84
2023/04/06 06:44:04;;;;;;;30.40;15.50;;;;;;;0.47;75.57;99376.98;274094;1266;23407;-85
2023/04/06 06:50:06;;;;;;;31.30;16.30;;;;;;;0.67;75.03;99375.81;273383;1267;22353;-86
2023/04/06 06:56:20;;;;;;;29.80;14.40;;;;;;;0.85;74.64;99374.20;272690;1266;22340;-88
2023/04/06 07:02:22;;;;;;;23.10;13.00;;;;;;;1.01;74.23;99377.81;271977;1266;23758;-86
2023/04/06 07:08:45;;;;;;;35.70;18.10;;;;;;;1.09;73.49;99367.92;272704;1267;22554;-87
2023/04/06 07:15:06;;;;;;;23.90;12.80;;;;;;;1.11;73.11;99368.13;270819;1267;22987;-86
2023/04/06 07:21:30;;;;;;;63.40;27.00;;;;;;;1.12;72.32;99370.27;271566;1267;22205;-86
2023/04/06 07:27:32;;;;;;;16.10;9.00;;;;;;;1.13;71.39;99370.68;271523;1267;22343;-85
2023/04/06 07:33:55;;;;;;;29.90;10.70;;;;;;;1.21;71.45;99377.14;271824;1266;22544;-85
2023/04/06 07:39:58;;;;;;;16.60;8.10;;;;;;;1.31;70.58;99378.02;272866;1267;23525;-86
2023/04/06 07:46:00;;;;;;;27.90;13.00;;;;;;;1.31;70.45;99383.33;273638;1266;22199;-85
2023/04/06 07:52:02;;;;;;;34.40;16.10;;;;;;;1.27;69.69;99382.75;268324;1267;6292076;-88
2023/04/06 07:58:05;;;;;;;14.20;7.90;;;;;;;1.26;68.92;99380.83;271269;1266;22493;-86
2023/04/06 08:04:06;;;;;;;13.70;7.30;;;;;;;1.36;68.55;99371.33;272184;1266;22332;-85
2023/04/06 08:10:08;;;;;;;10.50;7.10;;;;;;;1.55;68.21;99367.63;272938;1266;22315;-84
2023/04/06 08:16:14;;;;;;;14.40;7.90;;;;;;;1.72;67.76;99365.58;273370;1266;22277;-85
2023/04/06 08:22:15;;;;;;;13.60;7.20;;;;;;;1.77;67.67;99359.37;273340;1260;22349;-86
2023/04/06 08:28:17;;;;;;;14.50;8.50;;;;;;;1.88;67.28;99355.36;273307;1267;23172;-86
2023/04/06 08:34:20;;;;;;;12.70;6.90;;;;;;;2.13;66.93;99347.83;271924;1266;22436;-87
2023/04/06 08:40:49;;;;;;;18.40;9.00;;;;;;;2.33;66.36;99344.81;273465;1266;22243;-87
2023/04/06 08:47:36;;;;;;;10.40;7.10;;;;;;;2.68;66.26;99341.48;270474;1266;22737;-87
2023/04/06 08:53:48;;;;;;;12.30;6.60;;;;;;;2.93;65.45;99332.17;271673;1272;23033;-87
2023/04/06 08:59:50;;;;;;;13.40;7.10;;;;;;;3.42;65.42;99325.48;272808;1272;25395;-88
2023/04/06 09:06:13;;;;;;;11.20;6.70;;;;;;;3.74;64.30;99320.11;270857;1271;22603;-87
2023/04/06 09:12:31;;;;;;;10.60;6.70;;;;;;;3.58;63.53;99317.55;270064;1271;25361;-88
2023/04/06 09:18:33;;;;;;;12.00;6.40;;;;;;;3.47;63.25;99313.71;270273;1270;23872;-86
2023/04/06 09:24:49;;;;;;;11.00;7.50;;;;;;;3.49;63.39;99308.02;271656;1266;22538;-86
2023/04/06 09:30:50;;;;;;;11.60;6.90;;;;;;;3.37;63.19;99303.61;270699;1266;22540;-88
2023/04/06 09:36:54;;;;;;;13.20;7.40;;;;;;;3.28;63.10;99303.02;272112;1267;23814;-86
2023/04/06 09:42:57;;;;;;;13.70;7.70;;;;;;;3.33;62.84;99299.34;273346;1266;23350;-85
2023/04/06 09:49:10;;;;;;;13.90;7.90;;;;;;;3.37;62.67;99298.98;271854;1266;22301;-87
2023/04/06 09:55:36;;;;;;;14.80;8.20;;;;;;;3.46;62.24;99295.53;273700;1266;22333;-85
2023/04/06 10:01:48;;;;;;;15.20;8.30;;;;;;;3.59;62.42;99295.70;273500;1266;22455;-87
2023/04/06 10:07:53;;;;;;;13.10;7.80;;;;;;;3.63;62.03;99294.11;271992;1266;22558;-87
2023/04/06 10:13:55;;;;;;;13.00;8.20;;;;;;;3.66;61.56;99290.00;272304;1266;25097;-89
2023/04/06 10:20:11;;;;;;;9.40;6.10;;;;;;;3.68;61.44;99285.95;270588;1266;22203;-88
2023/04/06 10:26:16;;;;;;;14.10;6.40;;;;;;;3.85;61.45;99280.27;271008;1266;22505;-87
2023/04/06 10:32:17;;;;;;;11.50;6.40;;;;;;;3.84;60.94;99279.27;273030;1266;22390;-87
2023/04/06 10:38:21;;;;;;;8.90;5.40;;;;;;;3.77;60.73;99279.29;273656;1260;22392;-86
2023/04/06 10:44:28;;;;;;;11.20;6.10;;;;;;;3.73;61.02;99274.98;273292;1266;22337;-86
2023/04/06 10:50:56;;;;;;;8.80;5.30;;;;;;;3.76;61.47;99268.21;273429;1266;23654;-88
2023/04/06 10:56:57;;;;;;;13.20;5.90;;;;;;;3.71;61.39;99264.49;272366;1259;22444;-87
2023/04/06 11:03:01;;;;;;;10.00;5.70;;;;;;;3.62;61.71;99265.61;273834;1266;22341;-87
2023/04/06 11:09:03;;;;;;;12.30;6.70;;;;;;;3.54;61.55;99261.39;273816;1266;22337;-86
2023/04/06 11:15:05;;;;;;;18.40;9.50;;;;;;;3.38;61.63;99256.34;273380;1266;23377;-86
2023/04/06 11:21:07;;;;;;;18.20;8.80;;;;;;;3.00;62.29;99258.36;272933;1266;22458;-88
2023/04/06 11:27:08;;;;;;;14.90;8.50;;;;;;;2.73;62.99;99252.45;273781;1266;22300;-85
2023/04/06 11:33:10;;;;;;;20.80;9.60;;;;;;;2.63;63.44;99250.81;272034;1266;22650;-86
2023/04/06 11:39:13;;;;;;;13.70;8.50;;;;;;;2.56;64.48;99252.14;271560;1266;22735;-86
2023/04/06 11:45:15;;;;;;;16.20;8.60;;;;;;;2.60;66.17;99251.01;270353;1266;24252;-86
2023/04/06 11:51:44;;;;;;;14.00;8.40;;;;;;;2.60;67.04;99247.16;271427;1266;22578;-88
2023/04/06 11:58:07;;;;;;;14.10;8.10;;;;;;;2.52;67.92;99243.59;270902;1266;22796;-88
2023/04/06 12:04:08;;;;;;;19.40;11.10;;;;;;;2.41;68.40;99246.45;270705;1266;22854;-87
2023/04/06 12:10:31;;;;;;;18.50;10.30;;;;;;;2.21;68.60;99238.82;271673;1254;22756;-88
2023/04/06 12:16:34;;;;;;;22.70;14.30;;;;;;;2.06;71.11;99229.98;272724;1266;25399;-86
2023/04/06 12:22:36;;;;;;;17.60;10.00;;;;;;;2.02;72.35;99225.23;271233;1266;22370;-87
2023/04/06 12:28:38;;;;;;;24.40;15.90;;;;;;;1.97;72.73;99230.30;270877;1266;23430;-89
2023/04/06 12:34:44;;;;;;;18.90;12.00;;;;;;;1.77;73.75;99235.05;270659;1266;22660;-88
2023/04/06 12:40:47;;;;;;;27.20;14.40;;;;;;;1.73;75.28;99235.55;271060;1266;22576;-87
2023/04/06 12:46:52;;;;;;;23.60;12.30;;;;;;;1.65;75.83;99227.98;271461;1266;22524;-87
2023/04/06 12:52:54;;;;;;;21.40;12.10;;;;;;;1.61;76.85;99229.96;271504;1266;23278;-90
2023/04/06 12:59:22;;;;;;;18.30;11.70;;;;;;;1.64;77.46;99217.91;272585;1266;22350;-88
2023/04/06 13:05:50;;;;;;;25.20;13.90;;;;;;;1.62;77.90;99209.82;273827;1266;23253;-88
2023/04/06 13:11:51;;;;;;;24.60;12.80;;;;;;;1.55;78.28;99201.42;271693;1266;22591;-89
2023/04/06 13:17:53;;;;;;;21.00;12.30;;;;;;;1.46;79.02;99202.15;271053;1266;23704;-89
2023/04/06 13:24:05;;;;;;;24.60;13.40;;;;;;;1.41;79.56;99200.19;272228;1266;23480;-88
2023/04/06 13:30:07;;;;;;;22.90;13.90;;;;;;;1.42;80.24;99191.56;273335;1266;22328;-87
2023/04/06 13:36:29;;;;;;;27.20;14.20;;;;;;;1.51;80.56;99183.90;273459;1266;22444;-88
2023/04/06 13:42:31;;;;;;;26.90;15.90;;;;;;;1.61;80.90;99174.66;273224;1266;23064;-88
2023/04/06 13:55:58;;;;;;;24.70;15.10;;;;;;;1.67;81.51;99168.08;271807;1269;22548;-88
2023/04/06 14:02:04;;;;;;;21.20;12.80;;;;;;;1.64;82.12;99168.48;272892;1270;22356;-88
2023/04/06 14:08:31;;;;;;;20.30;13.90;;;;;;;1.62;82.37;99172.48;271655;1268;22234;-88
2023/04/06 14:14:47;;;;;;;26.20;14.40;;;;;;;1.60;82.89;99179.06;272510;1262;22414;-91
2023/04/06 14:21:22;;;;;;;30.90;16.10;;;;;;;1.48;82.93;99180.83;271660;1269;22391;-90
2023/04/06 14:27:25;;;;;;;28.50;16.30;;;;;;;1.44;83.81;99178.24;273891;1266;24112;-90
2023/04/06 14:34:06;;;;;;;31.00;18.60;;;;;;;1.45;83.59;99180.50;273068;1266;22239;-88
2023/04/06 14:40:55;;;;;;;30.90;19.20;;;;;;;1.47;84.32;99182.98;271467;1266;22205;-89
2023/04/06 14:47:20;;;;;;;34.60;19.50;;;;;;;1.44;84.32;99183.00;272097;1266;22588;-89
2023/04/06 14:53:47;;;;;;;32.00;19.70;;;;;;;1.40;84.63;99185.58;272295;1266;22530;-89
2023/04/06 15:00:09;;;;;;;;;;;;;;;1.40;85.37;99183.70;272670;1266;25318;-89
2023/04/06 15:07:39;;;;;;;37.60;23.90;;;;;;;1.33;85.61;99183.09;273731;1266;23405;-89
2023/04/06 15:14:25;;;;;;;42.50;23.00;;;;;;;1.27;85.89;99184.66;273633;1266;22394;-89
2023/04/06 15:20:53;;;;;;;43.90;26.20;;;;;;;1.20;85.75;99187.64;273489;1266;22192;-88
2023/04/06 15:27:38;;;;;;;40.40;23.10;;;;;;;1.11;85.93;99189.36;272647;1266;22550;-89
2023/04/06 15:34:34;;;;;;;47.40;25.20;;;;;;;1.04;86.65;99185.83;274028;1266;23068;-88
2023/04/06 15:41:13;;;;;;;43.10;25.70;;;;;;;0.95;86.74;99180.19;273578;1266;22400;-90
2023/04/06 15:48:00;;;;;;;36.70;21.30;;;;;;;0.90;87.79;99180.73;272296;1266;22419;-90
2023/04/06 15:55:03;;;;;;;43.60;22.30;;;;;;;0.92;88.43;99182.73;274293;1262;22498;-89
2023/04/06 16:02:15;;;;;;;37.60;22.20;;;;;;;1.01;88.82;99186.45;273937;1267;22392;-89
2023/04/06 16:08:24;;;;;;;35.70;21.10;;;;;;;1.04;89.30;99187.52;274069;1266;23220;-91
2023/04/06 16:15:17;;;;;;;34.80;20.00;;;;;;;1.02;89.72;99186.32;273694;1266;22549;-89
2023/04/06 16:23:14;;;;;;;42.20;23.10;;;;;;;1.00;90.01;99191.08;269566;1280;22256;-89
2023/04/06 16:30:07;;;;;;;44.40;25.50;;;;;;;0.96;90.36;99186.95;270238;1266;22241;-89
2023/04/06 16:36:56;;;;;;;;;;;;;;;;;;;;;
2023/04/06 16:43:23;;;;;;;46.00;27.00;;;;;;;0.87;90.90;99184.54;273768;1267;22427;-88
2023/04/06 16:49:51;;;;;;;47.60;29.90;;;;;;;0.82;91.10;99183.91;273646;1267;23189;-90
2023/04/06 16:57:00;;;;;;;45.80;27.30;;;;;;;0.76;91.33;99180.88;265885;1267;10001290;-90
2023/04/06 17:03:10;;;;;;;53.90;32.70;;;;;;;0.70;91.60;99176.91;273630;1270;23095;-90
2023/04/06 17:09:37;;;;;;;35.00;23.50;;;;;;;0.65;91.71;99173.48;274088;1266;23223;-89
2023/04/06 17:15:41;;;;;;;50.60;31.20;;;;;;;0.60;91.77;99175.98;272776;1269;26220;-89
2023/04/06 17:21:46;;;;;;;62.50;35.80;;;;;;;0.54;91.77;99174.91;272998;1267;22956;-91
2023/04/06 17:27:52;;;;;;;57.70;33.90;;;;;;;0.51;92.23;99174.48;272389;1266;22516;-89
2023/04/06 17:33:58;;;;;;;57.60;34.30;;;;;;;0.48;92.44;99176.09;272882;1266;23551;-90
2023/04/06 17:40:29;;;;;;;61.50;35.50;;;;;;;0.45;92.65;99179.45;273874;1266;22342;-91
2023/04/06 17:47:09;;;;;;;61.60;33.80;;;;;;;0.42;92.64;99174.24;273955;1266;22315;-90
2023/04/06 17:53:18;;;;;;;66.70;36.30;;;;;;;0.42;93.09;99172.84;273990;1267;22469;-92
2023/04/06 17:59:25;;;;;;;67.60;38.10;;;;;;;0.43;93.19;99178.59;272672;1259;22885;-89
2023/04/06 18:06:13;;;;;;;64.30;36.60;;;;;;;0.43;93.74;99176.60;273630;1266;22595;-90
2023/04/06 18:12:15;;;;;;;68.10;35.90;;;;;;;0.43;94.10;99177.45;272514;1270;22324;-89
2023/04/06 18:18:42;;;;;;;64.10;38.90;;;;;;;0.41;94.04;99176.48;272314;1266;22245;-90
2023/04/06 18:32:19;;;;;;;62.60;34.80;;;;;;;0.39;94.61;99177.60;271865;1266;22584;-91
2023/04/06 18:46:30;;;;;;;65.90;37.00;;;;;;;0.40;95.08;99172.19;274301;1267;22191;-90
2023/04/06 18:53:22;;;;;;;72.70;37.80;;;;;;;0.41;95.06;99171.33;273376;1262;22856;-91
2023/04/06 19:00:17;;;;;;;68.10;37.00;;;;;;;0.43;95.41;99168.89;272320;1273;22236;-91
2023/04/06 19:08:02;;;;;;;63.50;35.90;;;;;;;0.43;95.41;99161.30;272206;1280;22333;-90
2023/04/06 19:15:56;;;;;;;65.00;36.10;;;;;;;0.44;95.65;99156.10;272623;1278;22233;-89
2023/04/06 19:24:06;;;;;;;60.30;33.60;;;;;;;0.41;95.53;99154.17;270294;1288;23464;-91
2023/04/06 19:32:06;;;;;;;57.10;31.20;;;;;;;0.33;95.46;99147.85;270392;1286;22288;-91
2023/04/06 19:39:43;;;;;;;61.20;34.90;;;;;;;0.30;96.07;99141.08;270685;1284;22347;-91
2023/04/06 19:47:27;;;;;;;49.00;28.70;;;;;;;0.28;95.64;99132.08;270115;1281;22513;-92
2023/04/06 20:19:38;;;;;;;69.50;38.20;;;;;;;0.18;96.90;99132.48;270744;1283;22600;-91
2023/04/06 20:35:29;;;;;;;79.70;43.10;;;;;;;0.18;97.68;99126.86;269946;1277;22557;-91
2023/04/06 20:43:14;;;;;;;;;;;;;;;;;;;;;
2023/04/06 20:50:50;;;;;;;85.10;44.30;;;;;;;0.16;97.99;99110.44;270549;1275;22237;-90
2023/04/06 21:36:27;;;;;;;98.40;49.40;;;;;;;0.10;98.71;99091.35;269062;1281;22589;-92
2023/04/06 21:58:51;;;;;;;74.90;40.60;;;;;;;0.09;99.15;99075.38;268957;1287;23918;-92
2023/04/06 22:06:40;;;;;;;69.50;36.80;;;;;;;0.07;99.26;99071.83;270418;1284;22423;-92
2023/04/06 22:14:20;;;;;;;67.00;37.00;;;;;;;0.08;99.64;99064.55;269025;1287;23510;-90
2023/04/06 22:30:00;;;;;;;62.80;35.70;;;;;;;0.10;99.97;99055.60;272039;1279;22231;-90
2023/04/06 22:45:39;;;;;;;66.60;36.00;;;;;;;0.10;99.99;99037.56;269647;1295;22340;-91
2023/04/06 22:59:52;;;;;;;56.70;32.90;;;;;;;0.11;100.00;99018.75;269582;1280;22552;-89
2023/04/06 23:22:27;;;;;;;47.60;27.20;;;;;;;0.11;100.00;99006.05;271413;1279;23371;-89
2023/04/06 23:30:32;;;;;;;59.40;33.50;;;;;;;0.13;100.00;99003.75;271690;1280;25388;-88
2023/04/06 23:38:20;;;;;;;66.30;35.60;;;;;;;0.14;100.00;99002.28;270340;1283;22340;-89
2023/04/06 23:53:50;;;;;;;50.20;28.90;;;;;;;0.16;100.00;98980.63;268161;1285;22540;-88
